sensor_id;sensor_type;location;lat;lon;timestamp;pressure;altitude;pressure_sealevel;temperature;humidity
15050;BME280;7622;42.724;23.250;2024-02-14T00:00:04;94317.03;;;6.00;100.00
15050;BME280;7622;42.724;23.250;2024-02-14T00:02:31;94312.19;;;6.07;100.00
15050;BME280;7622;42.724;23.250;2024-02-14T00:04:58;94313.88;;;5.85;100.00
15050;BME280;7622;42.724;23.250;2024-02-14T00:07:25;94317.41;;;5.84;100.00
15050;BME280;7622;42.724;23.250;2024-02-14T00:09:52;94321.38;;;5.88;100.00
15050;BME280;7622;42.724;23.250;2024-02-14T00:12:19;94322.22;;;5.89;100.00
15050;BME280;7622;42.724;23.250;2024-02-14T00:14:46;94329.94;;;5.89;100.00
15050;BME280;7622;42.724;23.250;2024-02-14T00:17:19;94323.22;;;5.98;100.00
15050;BME280;7622;42.724;23.250;2024-02-14T00:19:49;94337.06;;;5.97;100.00
15050;BME280;7622;42.724;23.250;2024-02-14T00:22:18;94321.84;;;5.82;100.00
15050;BME280;7622;42.724;23.250;2024-02-14T00:24:48;94327.88;;;6.04;100.00
15050;BME280;7622;42.724;23.250;2024-02-14T00:27:16;94334.13;;;6.01;100.00
15050;BME280;7622;42.724;23.250;2024-02-14T00:29:43;94328.81;;;6.03;100.00
15050;BME280;7622;42.724;23.250;2024-02-14T00:32:12;94332.81;;;6.07;100.00
15050;BME280;7622;42.724;23.250;2024-02-14T00:34:41;94342.72;;;5.90;100.00
15050;BME280;7622;42.724;23.250;2024-02-14T00:37:12;94339.13;;;6.03;100.00
15050;BME280;7622;42.724;23.250;2024-02-14T00:39:40;94335.13;;;6.10;100.00
15050;BME280;7622;42.724;23.250;2024-02-14T00:42:07;94329.44;;;5.95;100.00
15050;BME280;7622;42.724;23.250;2024-02-14T00:44:33;94334.47;;;5.97;100.00
15050;BME280;7622;42.724;23.250;2024-02-14T00:47:00;94333.69;;;5.85;100.00
15050;BME280;7622;42.724;23.250;2024-02-14T00:49:27;94328.19;;;5.89;100.00
15050;BME280;7622;42.724;23.250;2024-02-14T00:51:55;94255.50;;;5.43;100.00
15050;BME280;7622;42.724;23.250;2024-02-14T00:54:22;94334.28;;;5.88;100.00
15050;BME280;7622;42.724;23.250;2024-02-14T00:56:49;94342.91;;;5.99;100.00
15050;BME280;7622;42.724;23.250;2024-02-14T00:59:15;94329.44;;;5.95;100.00
15050;BME280;7622;42.724;23.250;2024-02-14T01:01:42;94331.22;;;5.95;100.00
15050;BME280;7622;42.724;23.250;2024-02-14T01:04:10;94339.53;;;5.87;100.00
15050;BME280;7622;42.724;23.250;2024-02-14T01:06:36;94332.88;;;5.84;100.00
15050;BME280;7622;42.724;23.250;2024-02-14T01:09:04;94341.53;;;5.95;100.00
15050;BME280;7622;42.724;23.250;2024-02-14T01:11:31;94339.13;;;6.03;100.00
15050;BME280;7622;42.724;23.250;2024-02-14T01:13:58;94339.91;;;5.93;100.00
15050;BME280;7622;42.724;23.250;2024-02-14T01:16:25;94343.66;;;5.89;100.00
15050;BME280;7622;42.724;23.250;2024-02-14T01:18:52;94343.41;;;5.81;100.00
15050;BME280;7622;42.724;23.250;2024-02-14T01:21:18;94347.94;;;6.00;100.00
15050;BME280;7622;42.724;23.250;2024-02-14T01:23:45;94338.25;;;5.81;100.00
15050;BME280;7622;42.724;23.250;2024-02-14T01:26:13;94341.66;;;5.82;100.00
15050;BME280;7622;42.724;23.250;2024-02-14T01:28:40;94338.59;;;5.88;100.00
15050;BME280;7622;42.724;23.250;2024-02-14T01:31:09;94343.53;;;5.91;100.00
15050;BME280;7622;42.724;23.250;2024-02-14T01:33:37;94346.94;;;5.80;100.00
15050;BME280;7622;42.724;23.250;2024-02-14T01:36:04;94345.53;;;5.87;100.00
15050;BME280;7622;42.724;23.250;2024-02-14T01:38:31;94342.00;;;5.88;100.00
15050;BME280;7622;42.724;23.250;2024-02-14T01:40:58;94254.59;;;5.33;100.00
15050;BME280;7622;42.724;23.250;2024-02-14T01:43:26;94337.81;;;5.87;100.00
15050;BME280;7622;42.724;23.250;2024-02-14T01:45:53;94338.03;;;5.84;100.00
15050;BME280;7622;42.724;23.250;2024-02-14T01:48:20;94338.38;;;5.91;100.00
15050;BME280;7622;42.724;23.250;2024-02-14T01:50:47;94330.09;;;5.87;100.00
15050;BME280;7622;42.724;23.250;2024-02-14T01:53:14;94336.03;;;5.88;100.00
15050;BME280;7622;42.724;23.250;2024-02-14T01:55:41;94337.81;;;5.87;100.00
15050;BME280;7622;42.724;23.250;2024-02-14T01:58:08;94324.94;;;5.76;100.00
15050;BME280;7622;42.724;23.250;2024-02-14T02:00:37;94336.66;;;5.80;100.00
15050;BME280;7622;42.724;23.250;2024-02-14T02:03:04;94322.97;;;5.69;100.00
15050;BME280;7622;42.724;23.250;2024-02-14T02:05:30;94336.66;;;5.80;100.00
15050;BME280;7622;42.724;23.250;2024-02-14T02:07:59;94341.88;;;5.90;100.00
15050;BME280;7622;42.724;23.250;2024-02-14T02:10:26;94339.22;;;5.80;100.00
15050;BME280;7622;42.724;23.250;2024-02-14T02:12:58;94344.16;;;5.72;100.00
15050;BME280;7622;42.724;23.250;2024-02-14T02:15:26;94342.47;;;5.82;100.00
15050;BME280;7622;42.724;23.250;2024-02-14T02:18:00;94347.50;;;5.84;100.00
15050;BME280;7622;42.724;23.250;2024-02-14T02:20:30;94346.69;;;5.83;100.00
15050;BME280;7622;42.724;23.250;2024-02-14T02:22:58;94348.22;;;5.75;100.00
15050;BME280;7622;42.724;23.250;2024-02-14T02:25:25;94349.31;;;5.72;100.00
15050;BME280;7622;42.724;23.250;2024-02-14T02:27:52;94355.03;;;5.76;100.00
15050;BME280;7622;42.724;23.250;2024-02-14T02:30:23;94308.31;;;5.37;100.00
15050;BME280;7622;42.724;23.250;2024-02-14T02:32:50;94365.00;;;5.69;100.00
15050;BME280;7622;42.724;23.250;2024-02-14T02:35:17;94360.44;;;5.73;100.00
15050;BME280;7622;42.724;23.250;2024-02-14T02:37:45;94359.28;;;5.66;100.00
15050;BME280;7622;42.724;23.250;2024-02-14T02:40:17;94362.88;;;5.74;100.00
15050;BME280;7622;42.724;23.250;2024-02-14T02:42:48;94370.38;;;5.77;100.00
15050;BME280;7622;42.724;23.250;2024-02-14T02:45:17;94371.56;;;5.73;100.00
15050;BME280;7622;42.724;23.250;2024-02-14T02:47:44;94371.91;;;5.80;100.00
15050;BME280;7622;42.724;23.250;2024-02-14T02:50:10;94369.66;;;5.75;100.00
15050;BME280;7622;42.724;23.250;2024-02-14T02:52:37;94370.81;;;5.82;100.00
15050;BME280;7622;42.724;23.250;2024-02-14T02:55:04;94366.44;;;5.62;100.00
15050;BME280;7622;42.724;23.250;2024-02-14T02:57:32;94367.63;;;5.58;100.00
15050;BME280;7622;42.724;23.250;2024-02-14T03:00:02;94385.13;;;5.75;100.00
15050;BME280;7622;42.724;23.250;2024-02-14T03:02:30;94378.81;;;5.68;100.00
15050;BME280;7622;42.724;23.250;2024-02-14T03:04:57;94385.13;;;5.75;100.00
15050;BME280;7622;42.724;23.250;2024-02-14T03:07:24;94393.06;;;5.83;100.00
15050;BME280;7622;42.724;23.250;2024-02-14T03:09:51;94390.75;;;5.91;100.00
15050;BME280;7622;42.724;23.250;2024-02-14T03:12:17;94398.94;;;5.74;100.00
15050;BME280;7622;42.724;23.250;2024-02-14T03:14:47;94374.69;;;5.77;100.00
15050;BME280;7622;42.724;23.250;2024-02-14T03:17:14;94390.28;;;5.75;100.00
15050;BME280;7622;42.724;23.250;2024-02-14T03:19:42;94390.75;;;5.69;100.00
15050;BME280;7622;42.724;23.250;2024-02-14T03:22:12;94406.44;;;5.77;100.00
15050;BME280;7622;42.724;23.250;2024-02-14T03:24:41;94403.41;;;5.61;100.00
15050;BME280;7622;42.724;23.250;2024-02-14T03:27:12;94407.50;;;5.75;100.00
15050;BME280;7622;42.724;23.250;2024-02-14T03:29:38;94419.94;;;5.70;100.00
15050;BME280;7622;42.724;23.250;2024-02-14T03:32:07;94413.63;;;5.63;100.00
15050;BME280;7622;42.724;23.250;2024-02-14T03:34:34;94417.84;;;5.64;100.00
15050;BME280;7622;42.724;23.250;2024-02-14T03:37:01;94422.16;;;5.63;100.00
15050;BME280;7622;42.724;23.250;2024-02-14T03:39:28;94427.78;;;5.68;100.00
15050;BME280;7622;42.724;23.250;2024-02-14T03:41:56;94428.47;;;5.70;100.00
15050;BME280;7622;42.724;23.250;2024-02-14T03:44:22;94423.91;;;5.63;100.00
15050;BME280;7622;42.724;23.250;2024-02-14T03:46:49;94428.72;;;5.67;100.00
15050;BME280;7622;42.724;23.250;2024-02-14T03:49:17;94435.00;;;5.74;100.00
15050;BME280;7622;42.724;23.250;2024-02-14T03:51:45;94430.94;;;5.61;100.00
15050;BME280;7622;42.724;23.250;2024-02-14T03:54:11;94433.75;;;5.69;100.00
15050;BME280;7622;42.724;23.250;2024-02-14T03:56:38;94443.13;;;5.70;100.00
15050;BME280;7622;42.724;23.250;2024-02-14T03:59:06;94426.38;;;5.64;100.00
15050;BME280;7622;42.724;23.250;2024-02-14T04:01:33;94440.66;;;5.68;100.00
15050;BME280;7622;42.724;23.250;2024-02-14T04:03:59;94437.84;;;5.60;100.00
15050;BME280;7622;42.724;23.250;2024-02-14T04:06:27;94439.00;;;5.67;100.00
15050;BME280;7622;42.724;23.250;2024-02-14T04:08:57;94444.16;;;5.67;100.00
15050;BME280;7622;42.724;23.250;2024-02-14T04:11:24;94442.31;;;5.58;100.00
15050;BME280;7622;42.724;23.250;2024-02-14T04:13:51;94459.66;;;5.45;100.00
15050;BME280;7622;42.724;23.250;2024-02-14T04:16:19;94451.69;;;5.48;100.00
15050;BME280;7622;42.724;23.250;2024-02-14T04:18:47;94446.31;;;5.51;100.00
15050;BME280;7622;42.724;23.250;2024-02-14T04:21:13;94449.09;;;5.48;100.00
15050;BME280;7622;42.724;23.250;2024-02-14T04:23:42;94460.47;;;5.45;100.00
15050;BME280;7622;42.724;23.250;2024-02-14T04:26:08;94461.41;;;5.55;100.00
15050;BME280;7622;42.724;23.250;2024-02-14T04:28:35;94468.44;;;5.42;100.00
15050;BME280;7622;42.724;23.250;2024-02-14T04:31:02;94463.53;;;5.50;100.00
15050;BME280;7622;42.724;23.250;2024-02-14T04:33:31;94434.94;;;5.42;100.00
15050;BME280;7622;42.724;23.250;2024-02-14T04:35:57;94467.84;;;5.50;100.00
15050;BME280;7622;42.724;23.250;2024-02-14T04:38:24;94471.25;;;5.50;100.00
15050;BME280;7622;42.724;23.250;2024-02-14T04:40:52;94459.16;;;5.62;100.00
15050;BME280;7622;42.724;23.250;2024-02-14T04:43:20;94467.38;;;5.56;100.00
15050;BME280;7622;42.724;23.250;2024-02-14T04:45:46;94485.19;;;5.59;100.00
15050;BME280;7622;42.724;23.250;2024-02-14T04:48:13;94469.84;;;5.58;100.00
15050;BME280;7622;42.724;23.250;2024-02-14T04:50:40;94476.84;;;5.55;100.00
15050;BME280;7622;42.724;23.250;2024-02-14T04:53:06;94480.38;;;5.54;100.00
15050;BME280;7622;42.724;23.250;2024-02-14T04:55:33;94479.09;;;5.38;100.00
15050;BME280;7622;42.724;23.250;2024-02-14T04:58:01;94483.53;;;5.47;100.00
15050;BME280;7622;42.724;23.250;2024-02-14T05:00:28;94482.81;;;5.34;100.00
15050;BME280;7622;42.724;23.250;2024-02-14T05:02:55;94487.50;;;5.40;100.00
15050;BME280;7622;42.724;23.250;2024-02-14T05:05:22;94495.59;;;5.58;100.00
15050;BME280;7622;42.724;23.250;2024-02-14T05:07:49;94495.47;;;5.48;100.00
15050;BME280;7622;42.724;23.250;2024-02-14T05:10:16;94501.81;;;5.44;100.00
15050;BME280;7622;42.724;23.250;2024-02-14T05:12:42;94487.75;;;5.37;100.00
15050;BME280;7622;42.724;23.250;2024-02-14T05:15:10;94495.38;;;5.38;100.00
15050;BME280;7622;42.724;23.250;2024-02-14T05:17:38;94494.06;;;5.22;100.00
15050;BME280;7622;42.724;23.250;2024-02-14T05:20:05;94513.25;;;5.40;100.00
15050;BME280;7622;42.724;23.250;2024-02-14T05:22:35;94516.66;;;5.40;100.00
15050;BME280;7622;42.724;23.250;2024-02-14T05:25:02;94517.84;;;5.36;100.00
15050;BME280;7622;42.724;23.250;2024-02-14T05:27:29;94520.28;;;5.38;100.00
15050;BME280;7622;42.724;23.250;2024-02-14T05:29:56;94536.56;;;5.38;100.00
15050;BME280;7622;42.724;23.250;2024-02-14T05:32:24;94530.81;;;5.35;100.00
15050;BME280;7622;42.724;23.250;2024-02-14T05:34:51;94530.34;;;5.41;100.00
15050;BME280;7622;42.724;23.250;2024-02-14T05:37:18;94528.69;;;5.29;100.00
15050;BME280;7622;42.724;23.250;2024-02-14T05:39:44;94527.16;;;5.26;100.00
15050;BME280;7622;42.724;23.250;2024-02-14T05:42:11;94538.06;;;5.30;100.00
15050;BME280;7622;42.724;23.250;2024-02-14T05:44:38;94542.19;;;5.32;100.00
15050;BME280;7622;42.724;23.250;2024-02-14T05:47:05;94543.94;;;5.32;100.00
15050;BME280;7622;42.724;23.250;2024-02-14T05:49:33;94547.91;;;5.25;100.00
15050;BME280;7622;42.724;23.250;2024-02-14T05:52:00;94542.25;;;5.20;100.00
15050;BME280;7622;42.724;23.250;2024-02-14T05:54:27;94548.38;;;5.19;100.00
15050;BME280;7622;42.724;23.250;2024-02-14T05:56:54;94554.66;;;5.14;100.00
15050;BME280;7622;42.724;23.250;2024-02-14T05:59:22;94554.19;;;5.09;100.00
15050;BME280;7622;42.724;23.250;2024-02-14T06:01:49;94561.66;;;5.12;100.00
15050;BME280;7622;42.724;23.250;2024-02-14T06:04:15;94571.28;;;5.10;100.00
15050;BME280;7622;42.724;23.250;2024-02-14T06:06:44;94577.81;;;5.14;100.00
15050;BME280;7622;42.724;23.250;2024-02-14T06:09:10;94582.63;;;5.19;100.00
15050;BME280;7622;42.724;23.250;2024-02-14T06:11:38;94575.72;;;5.20;100.00
15050;BME280;7622;42.724;23.250;2024-02-14T06:14:04;94575.25;;;5.14;100.00
15050;BME280;7622;42.724;23.250;2024-02-14T06:16:32;94581.84;;;5.19;100.00
15050;BME280;7622;42.724;23.250;2024-02-14T06:18:59;94579.13;;;5.20;100.00
15050;BME280;7622;42.724;23.250;2024-02-14T06:21:26;94572.41;;;5.06;100.00
15050;BME280;7622;42.724;23.250;2024-02-14T06:23:54;94588.13;;;5.26;100.00
15050;BME280;7622;42.724;23.250;2024-02-14T06:26:21;94593.06;;;5.29;100.00
15050;BME280;7622;42.724;23.250;2024-02-14T06:28:47;94599.16;;;5.28;100.00
15050;BME280;7622;42.724;23.250;2024-02-14T06:31:19;94569.63;;;5.09;100.00
15050;BME280;7622;42.724;23.250;2024-02-14T06:33:46;94603.97;;;5.32;100.00
15050;BME280;7622;42.724;23.250;2024-02-14T06:36:13;94607.50;;;5.31;100.00
15050;BME280;7622;42.724;23.250;2024-02-14T06:38:39;94614.41;;;5.42;100.00
15050;BME280;7622;42.724;23.250;2024-02-14T06:41:07;94598.84;;;5.43;100.00
15050;BME280;7622;42.724;23.250;2024-02-14T06:43:34;94528.03;;;4.92;100.00
15050;BME280;7622;42.724;23.250;2024-02-14T06:46:03;94603.91;;;5.45;100.00
15050;BME280;7622;42.724;23.250;2024-02-14T06:48:30;94617.47;;;5.47;100.00
15050;BME280;7622;42.724;23.250;2024-02-14T06:50:56;94620.28;;;5.55;100.00
15050;BME280;7622;42.724;23.250;2024-02-14T06:53:23;94620.66;;;5.62;100.00
15050;BME280;7622;42.724;23.250;2024-02-14T06:55:50;94614.19;;;5.45;100.00
15050;BME280;7622;42.724;23.250;2024-02-14T06:58:18;94603.38;;;5.40;100.00
15050;BME280;7622;42.724;23.250;2024-02-14T07:00:46;94626.88;;;5.59;100.00
15050;BME280;7622;42.724;23.250;2024-02-14T07:03:16;94626.25;;;5.55;100.00
15050;BME280;7622;42.724;23.250;2024-02-14T07:05:44;94633.88;;;5.57;100.00
15050;BME280;7622;42.724;23.250;2024-02-14T07:08:10;94630.69;;;5.53;100.00
15050;BME280;7622;42.724;23.250;2024-02-14T07:10:37;94646.56;;;5.71;100.00
15050;BME280;7622;42.724;23.250;2024-02-14T07:13:04;94647.50;;;5.70;100.00
15050;BME280;7622;42.724;23.250;2024-02-14T07:15:32;94647.50;;;5.70;100.00
15050;BME280;7622;42.724;23.250;2024-02-14T07:17:59;94649.09;;;5.60;100.00
15050;BME280;7622;42.724;23.250;2024-02-14T07:20:26;94657.31;;;5.65;100.00
15050;BME280;7622;42.724;23.250;2024-02-14T07:22:52;94665.06;;;5.76;100.00
15050;BME280;7622;42.724;23.250;2024-02-14T07:25:21;94659.34;;;5.73;100.00
15050;BME280;7622;42.724;23.250;2024-02-14T07:27:48;94666.81;;;5.65;100.00
15050;BME280;7622;42.724;23.250;2024-02-14T07:30:15;94656.25;;;5.68;100.00
15050;BME280;7622;42.724;23.250;2024-02-14T07:32:44;94661.03;;;5.61;100.00
15050;BME280;7622;42.724;23.250;2024-02-14T07:35:10;94670.41;;;5.62;100.00
15050;BME280;7622;42.724;23.250;2024-02-14T07:37:38;94672.59;;;5.79;100.00
15050;BME280;7622;42.724;23.250;2024-02-14T07:40:07;94674.09;;;5.82;100.00
15050;BME280;7622;42.724;23.250;2024-02-14T07:42:36;94671.66;;;5.80;100.00
15050;BME280;7622;42.724;23.250;2024-02-14T07:45:06;94686.16;;;5.70;100.00
15050;BME280;7622;42.724;23.250;2024-02-14T07:47:34;94684.50;;;5.69;100.00
15050;BME280;7622;42.724;23.250;2024-02-14T07:50:03;94676.66;;;5.71;100.00
15050;BME280;7622;42.724;23.250;2024-02-14T07:52:29;94674.19;;;5.69;100.00
15050;BME280;7622;42.724;23.250;2024-02-14T07:54:56;94599.34;;;5.13;100.00
15050;BME280;7622;42.724;23.250;2024-02-14T07:57:23;94674.22;;;5.80;100.00
15050;BME280;7622;42.724;23.250;2024-02-14T07:59:50;94681.97;;;5.80;100.00
15050;BME280;7622;42.724;23.250;2024-02-14T08:02:17;94674.28;;;5.68;100.00
15050;BME280;7622;42.724;23.250;2024-02-14T08:04:44;94683.53;;;5.59;100.00
15050;BME280;7622;42.724;23.250;2024-02-14T08:07:12;94677.88;;;5.54;100.00
15050;BME280;7622;42.724;23.250;2024-02-14T08:09:39;94686.50;;;5.66;100.00
15050;BME280;7622;42.724;23.250;2024-02-14T08:12:06;94687.97;;;5.57;100.00
15050;BME280;7622;42.724;23.250;2024-02-14T08:14:32;94682.94;;;5.55;100.00
15050;BME280;7622;42.724;23.250;2024-02-14T08:16:59;94688.69;;;5.59;100.00
15050;BME280;7622;42.724;23.250;2024-02-14T08:19:26;94683.38;;;5.49;100.00
15050;BME280;7622;42.724;23.250;2024-02-14T08:21:54;94687.00;;;5.47;100.00
15050;BME280;7622;42.724;23.250;2024-02-14T08:24:28;94681.75;;;5.48;100.00
15050;BME280;7622;42.724;23.250;2024-02-14T08:26:57;94684.66;;;5.44;100.00
15050;BME280;7622;42.724;23.250;2024-02-14T08:29:24;94692.38;;;5.44;100.00
15050;BME280;7622;42.724;23.250;2024-02-14T08:31:50;94701.75;;;5.45;100.00
15050;BME280;7622;42.724;23.250;2024-02-14T08:34:18;94707.97;;;5.53;100.00
15050;BME280;7622;42.724;23.250;2024-02-14T08:36:45;94704.22;;;5.46;100.00
15050;BME280;7622;42.724;23.250;2024-02-14T08:39:12;94704.94;;;5.48;100.00
15050;BME280;7622;42.724;23.250;2024-02-14T08:41:40;94706.53;;;5.38;100.00
15050;BME280;7622;42.724;23.250;2024-02-14T08:44:12;94700.03;;;5.22;100.00
15050;BME280;7622;42.724;23.250;2024-02-14T08:46:39;94714.75;;;5.20;100.00
15050;BME280;7622;42.724;23.250;2024-02-14T08:49:07;94709.41;;;5.23;100.00
15050;BME280;7622;42.724;23.250;2024-02-14T08:51:34;94717.94;;;5.23;100.00
15050;BME280;7622;42.724;23.250;2024-02-14T08:54:02;94720.09;;;5.40;100.00
15050;BME280;7622;42.724;23.250;2024-02-14T08:56:30;94709.88;;;5.51;100.00
15050;BME280;7622;42.724;23.250;2024-02-14T08:59:00;94695.25;;;5.28;100.00
15050;BME280;7622;42.724;23.250;2024-02-14T09:01:27;94708.22;;;5.27;100.00
15050;BME280;7622;42.724;23.250;2024-02-14T09:03:54;94722.19;;;5.35;100.00
15050;BME280;7622;42.724;23.250;2024-02-14T09:06:21;94717.88;;;5.36;100.00
15050;BME280;7622;42.724;23.250;2024-02-14T09:08:48;94729.38;;;5.43;100.00
15050;BME280;7622;42.724;23.250;2024-02-14T09:11:15;94727.38;;;5.46;100.00
15050;BME280;7622;42.724;23.250;2024-02-14T09:13:42;94725.22;;;5.53;100.00
15050;BME280;7622;42.724;23.250;2024-02-14T09:16:11;94740.88;;;5.50;100.00
15050;BME280;7622;42.724;23.250;2024-02-14T09:18:38;94728.94;;;5.49;100.00
15050;BME280;7622;42.724;23.250;2024-02-14T09:21:05;94735.94;;;5.47;100.00
15050;BME280;7622;42.724;23.250;2024-02-14T09:23:31;94735.94;;;5.47;100.00
15050;BME280;7622;42.724;23.250;2024-02-14T09:25:58;94738.28;;;5.39;100.00
15050;BME280;7622;42.724;23.250;2024-02-14T09:28:25;94738.50;;;5.47;100.00
15050;BME280;7622;42.724;23.250;2024-02-14T09:30:51;94736.06;;;5.45;100.00
15050;BME280;7622;42.724;23.250;2024-02-14T09:33:21;94745.38;;;5.59;100.00
15050;BME280;7622;42.724;23.250;2024-02-14T09:35:48;94740.34;;;5.69;100.00
15050;BME280;7622;42.724;23.250;2024-02-14T09:38:17;94746.50;;;5.55;100.00
15050;BME280;7622;42.724;23.250;2024-02-14T09:40:44;94746.88;;;5.62;100.00
15050;BME280;7622;42.724;23.250;2024-02-14T09:43:17;94755.81;;;5.69;100.00
15050;BME280;7622;42.724;23.250;2024-02-14T09:45:51;94661.03;;;5.15;100.00
15050;BME280;7622;42.724;23.250;2024-02-14T09:48:21;94753.63;;;5.75;100.00
15050;BME280;7622;42.724;23.250;2024-02-14T09:50:48;94733.38;;;5.82;100.00
15050;BME280;7622;42.724;23.250;2024-02-14T09:53:16;94737.00;;;5.79;100.00
15050;BME280;7622;42.724;23.250;2024-02-14T09:55:45;94741.84;;;5.60;100.00
15050;BME280;7622;42.724;23.250;2024-02-14T09:58:12;94743.88;;;5.68;100.00
15050;BME280;7622;42.724;23.250;2024-02-14T10:00:39;94739.97;;;5.62;100.00
15050;BME280;7622;42.724;23.250;2024-02-14T10:03:07;94746.13;;;5.72;100.00
15050;BME280;7622;42.724;23.250;2024-02-14T10:05:36;94747.31;;;5.79;100.00
15050;BME280;7622;42.724;23.250;2024-02-14T10:08:03;94734.91;;;5.84;100.00
15050;BME280;7622;42.724;23.250;2024-02-14T10:10:32;94742.94;;;5.92;100.00
15050;BME280;7622;42.724;23.250;2024-02-14T10:12:59;94747.06;;;6.06;100.00
15050;BME280;7622;42.724;23.250;2024-02-14T10:15:27;94746.69;;;6.00;100.00
15050;BME280;7622;42.724;23.250;2024-02-14T10:17:58;94748.81;;;6.06;100.00
15050;BME280;7622;42.724;23.250;2024-02-14T10:20:26;94744.59;;;5.93;100.00
15050;BME280;7622;42.724;23.250;2024-02-14T10:23:01;94752.03;;;5.85;100.00
15050;BME280;7622;42.724;23.250;2024-02-14T10:25:28;94756.03;;;5.89;100.00
15050;BME280;7622;42.724;23.250;2024-02-14T10:27:55;94749.97;;;6.02;100.00
15050;BME280;7622;42.724;23.250;2024-02-14T10:30:22;94750.22;;;6.10;100.00
15050;BME280;7622;42.724;23.250;2024-02-14T10:32:50;94742.53;;;6.21;100.00
15050;BME280;7622;42.724;23.250;2024-02-14T10:35:18;94733.84;;;6.22;100.00
15050;BME280;7622;42.724;23.250;2024-02-14T10:37:47;94741.91;;;6.17;100.00
15050;BME280;7622;42.724;23.250;2024-02-14T10:40:16;94741.22;;;6.15;100.00
15050;BME280;7622;42.724;23.250;2024-02-14T10:42:44;94735.94;;;6.06;100.00
15050;BME280;7622;42.724;23.250;2024-02-14T10:45:10;94733.09;;;6.09;100.00
15050;BME280;7622;42.724;23.250;2024-02-14T10:47:40;94734.03;;;5.97;100.00
15050;BME280;7622;42.724;23.250;2024-02-14T10:50:10;94737.91;;;6.02;100.00
15050;BME280;7622;42.724;23.250;2024-02-14T10:52:40;94737.69;;;6.05;100.00
15050;BME280;7622;42.724;23.250;2024-02-14T10:55:08;94731.69;;;6.05;100.00
15050;BME280;7622;42.724;23.250;2024-02-14T10:57:38;94739.19;;;5.97;100.00
15050;BME280;7622;42.724;23.250;2024-02-14T11:00:09;94740.81;;;5.98;100.00
15050;BME280;7622;42.724;23.250;2024-02-14T11:02:39;94732.63;;;5.92;100.00
15050;BME280;7622;42.724;23.250;2024-02-14T11:05:11;94740.84;;;6.09;100.00
15050;BME280;7622;42.724;23.250;2024-02-14T11:07:43;94742.97;;;6.15;100.00
15050;BME280;7622;42.724;23.250;2024-02-14T11:10:13;94736.34;;;5.88;100.00
15050;BME280;7622;42.724;23.250;2024-02-14T11:12:42;94733.25;;;5.83;100.00
15050;BME280;7622;42.724;23.250;2024-02-14T11:15:11;94726.56;;;5.81;100.00
15050;BME280;7622;42.724;23.250;2024-02-14T11:17:39;94738.19;;;5.86;100.00
15050;BME280;7622;42.724;23.250;2024-02-14T11:20:16;94729.28;;;5.79;100.00
15050;BME280;7622;42.724;23.250;2024-02-14T11:22:52;94732.69;;;5.80;100.00
15050;BME280;7622;42.724;23.250;2024-02-14T11:25:23;94739.53;;;5.92;100.00
15050;BME280;7622;42.724;23.250;2024-02-14T11:27:51;94739.28;;;5.95;100.00
15050;BME280;7622;42.724;23.250;2024-02-14T11:30:33;94737.78;;;5.92;100.00
15050;BME280;7622;42.724;23.250;2024-02-14T11:33:19;94741.06;;;5.95;100.00
15050;BME280;7622;42.724;23.250;2024-02-14T11:35:47;94737.06;;;5.90;100.00
15050;BME280;7622;42.724;23.250;2024-02-14T11:38:15;94740.97;;;6.07;100.00
15050;BME280;7622;42.724;23.250;2024-02-14T11:40:42;94745.53;;;6.04;100.00
15050;BME280;7622;42.724;23.250;2024-02-14T11:43:14;94735.91;;;5.95;100.00
15050;BME280;7622;42.724;23.250;2024-02-14T11:45:46;94742.22;;;6.02;100.00
15050;BME280;7622;42.724;23.250;2024-02-14T11:48:16;94741.56;;;6.11;100.00
15050;BME280;7622;42.724;23.250;2024-02-14T11:50:44;94721.38;;;5.93;100.00
15050;BME280;7622;42.724;23.250;2024-02-14T11:53:11;94743.19;;;6.01;100.00
15050;BME280;7622;42.724;23.250;2024-02-14T11:55:39;94743.66;;;6.06;100.00
15050;BME280;7622;42.724;23.250;2024-02-14T11:58:07;94743.19;;;6.12;100.00
15050;BME280;7622;42.724;23.250;2024-02-14T12:00:38;94743.66;;;6.17;100.00
15050;BME280;7622;42.724;23.250;2024-02-14T12:03:07;94742.47;;;5.99;100.00
15050;BME280;7622;42.724;23.250;2024-02-14T12:05:34;94743.41;;;6.09;100.00
15050;BME280;7622;42.724;23.250;2024-02-14T12:08:02;94726.91;;;6.11;100.00
15050;BME280;7622;42.724;23.250;2024-02-14T12:10:31;94740.16;;;6.07;100.00
15050;BME280;7622;42.724;23.250;2024-02-14T12:12:58;94740.28;;;6.16;100.00
15050;BME280;7622;42.724;23.250;2024-02-14T12:15:25;94746.03;;;6.20;100.00
15050;BME280;7622;42.724;23.250;2024-02-14T12:17:55;94733.34;;;6.17;100.00
15050;BME280;7622;42.724;23.250;2024-02-14T12:20:22;94745.34;;;6.29;100.00
15050;BME280;7622;42.724;23.250;2024-02-14T12:22:50;94740.88;;;6.31;100.00
15050;BME280;7622;42.724;23.250;2024-02-14T12:25:16;94740.44;;;6.48;100.00
15050;BME280;7622;42.724;23.250;2024-02-14T12:27:50;94727.88;;;6.32;100.00
15050;BME280;7622;42.724;23.250;2024-02-14T12:30:17;94732.34;;;6.53;100.00
15050;BME280;7622;42.724;23.250;2024-02-14T12:32:44;94724.38;;;6.56;100.00
15050;BME280;7622;42.724;23.250;2024-02-14T12:35:16;94729.19;;;6.49;100.00
15050;BME280;7622;42.724;23.250;2024-02-14T12:37:44;94727.50;;;6.37;100.00
15050;BME280;7622;42.724;23.250;2024-02-14T12:40:11;94733.38;;;6.39;100.00
15050;BME280;7622;42.724;23.250;2024-02-14T12:42:37;94733.63;;;6.58;100.00
15050;BME280;7622;42.724;23.250;2024-02-14T12:45:04;94722.84;;;6.53;100.00
15050;BME280;7622;42.724;23.250;2024-02-14T12:47:32;94726.13;;;6.55;100.00
15050;BME280;7622;42.724;23.250;2024-02-14T12:50:00;94727.03;;;6.65;100.00
15050;BME280;7622;42.724;23.250;2024-02-14T12:52:28;94736.19;;;6.58;100.00
15050;BME280;7622;42.724;23.250;2024-02-14T12:54:55;94725.88;;;6.58;100.00
15050;BME280;7622;42.724;23.250;2024-02-14T12:57:22;94733.84;;;6.66;100.00
15050;BME280;7622;42.724;23.250;2024-02-14T12:59:49;94732.94;;;6.56;100.00
15050;BME280;7622;42.724;23.250;2024-02-14T13:02:15;94710.16;;;6.50;100.00